Flight Track Log - Related Links

Times and Time Zones

All times are in EDT time to prevent confusion due to time zone crossing. See the N830QS flight status page for this flight to view local times or setup timezone preferences in your user account.

Time Position Orientation Groundspeed Altitude Reporting Facility
EDT Latitude Longitude Course Direction KTS MPH feet Rate Location/Type
Fri 05:23:09 PM 35.0833 -111.6500 64° Northeast 219 252 9,800  Level Phoenix TRACON
Fri 05:23:57 PM 35.1167 -111.5667 64° Northeast 272 313 11,500 2,000 Climbing Phoenix TRACON
Fri 05:24:57 PM 35.1333 -111.4500 80° East 359 413 13,400 1,890 Climbing Phoenix TRACON
Fri 05:26:04 PM 35.1500 -111.3167 81° East 370 426 15,500 2,031 Climbing Phoenix TRACON
Fri 05:27:04 PM 35.1667 -111.1833 81° East 376 433 17,700 2,350 Climbing Phoenix TRACON
Fri 05:28:04 PM 35.2000 -111.0500 73° East 387 445 20,200 2,150 Climbing Phoenix TRACON
Fri 05:29:04 PM 35.2167 -110.9167 81° East 394 453 22,000 1,700 Climbing Phoenix TRACON
Fri 05:30:04 PM 35.2333 -110.7833 81° East 409 471 23,600 1,636 Climbing Phoenix TRACON
Fri 05:31:05 PM 35.2500 -110.6333 82° East 428 493 25,300 1,835 Climbing Phoenix TRACON
Fri 05:32:05 PM 35.2667 -110.4833 82° East 437 503 27,300 1,800 Climbing Phoenix TRACON
Fri 05:33:05 PM 35.2833 -110.3333 82° East 440 506 28,900 1,400 Climbing Phoenix TRACON
Fri 05:34:05 PM 35.3167 -110.1833 75° East 447 514 30,100 1,050 Climbing Phoenix TRACON
Fri 05:35:05 PM 35.3333 -110.0167 83° East 463 533 31,000 450 Climbing Phoenix TRACON
Fri 05:36:05 PM 35.3500 -109.8667 82° East 483 556 31,000 678 Level Phoenix TRACON
Fri 05:37:00 PM 35.3667 -109.7000 83° East 502 578 32,300 1,878 Climbing Phoenix TRACON
Fri 05:38:00 PM 35.4000 -109.5500 75° East 489 563 34,600 1,762 Climbing Phoenix TRACON
Fri 05:39:06 PM 35.4167 -109.3833 83° East 456 525 36,000 1,000 Climbing Phoenix TRACON
Fri 05:40:06 PM 35.4333 -109.2333 82° East 467 537 36,700 950 Climbing Phoenix TRACON
Fri 05:41:06 PM 35.4500 -109.0667 83° East 476 548 37,900 1,148 Climbing Phoenix TRACON
Fri 05:42:01 PM 35.4667 -108.9167 82° East 477 549 38,900 887 Climbing Phoenix TRACON
Fri 05:43:01 PM 35.5000 -108.7667 75° East 477 549 39,600 700 Climbing Phoenix TRACON
Fri 05:45:00 PM 35.7347 -108.6294 25° Northeast  Level Estimated
Fri 05:52:00 PM 36.5619 -108.1383 25° Northeast  Level Estimated
Fri 05:53:00 PM 36.6799 -108.0673 26° Northeast  Level Estimated
Fri 05:54:00 PM 36.7978 -107.9960 26° Northeast  Level Estimated
Fri 05:55:00 PM 36.9157 -107.9246 26° Northeast  Level Estimated
Fri 05:56:00 PM 37.0336 -107.8529 26° Northeast  Level Estimated
Fri 05:57:00 PM 37.1514 -107.7810 26° Northeast  Level Estimated
Fri 05:58:00 PM 37.2692 -107.7089 26° Northeast  Level Estimated
Fri 05:59:00 PM 37.3870 -107.6366 26° Northeast  Level Estimated
Fri 06:00:00 PM 37.5047 -107.5640 26° Northeast  Level Estimated
Fri 06:01:00 PM 37.6223 -107.4912 26° Northeast  Level Estimated
Fri 06:02:00 PM 37.7399 -107.4182 26° Northeast  Level Estimated
Fri 06:03:00 PM 37.8575 -107.3449 26° Northeast  Level Estimated
Fri 06:04:00 PM 37.9750 -107.2714 26° Northeast  Level Estimated
Fri 06:05:00 PM 38.0925 -107.1977 26° Northeast  Level Estimated
Fri 06:06:00 PM 38.2099 -107.1237 26° Northeast  Level Estimated
Fri 06:07:00 PM 38.3273 -107.0495 26° Northeast  Level Estimated
Fri 06:08:00 PM 38.4446 -106.9751 26° Northeast  Level Estimated
Fri 06:09:00 PM 38.5619 -106.9004 26° Northeast  Level Estimated
Fri 06:10:00 PM 38.6791 -106.8254 27° Northeast  Level Estimated
Fri 06:11:00 PM 38.7963 -106.7503 27° Northeast  Level Estimated
Fri 06:12:00 PM 38.9134 -106.6748 27° Northeast  Level Estimated
Fri 06:13:00 PM 39.0305 -106.5991 27° Northeast  Level Estimated
Fri 06:14:00 PM 39.1476 -106.5232 27° Northeast  Level Estimated
Fri 06:15:00 PM 39.2646 -106.4470 27° Northeast  Level Estimated
Fri 06:16:00 PM 39.3815 -106.3706 27° Northeast  Level Estimated
Fri 06:17:00 PM 39.4984 -106.2939 27° Northeast  Level Estimated
Fri 06:18:00 PM 39.6152 -106.2169 27° Northeast  Level Estimated
Fri 06:19:00 PM 39.7320 -106.1397 27° Northeast  Level Estimated
Fri 06:20:00 PM 39.8488 -106.0623 27° Northeast  Level Estimated
Fri 06:21:00 PM 39.9655 -105.9845 27° Northeast  Level Estimated
Fri 06:22:00 PM 40.0821 -105.9065 27° Northeast  Level Estimated
Fri 06:23:00 PM 40.1987 -105.8283 27° Northeast  Level Estimated
Fri 06:24:00 PM 40.3152 -105.7497 27° Northeast  Level Estimated
Fri 06:25:00 PM 40.4317 -105.6709 27° Northeast  Level Estimated
Fri 06:26:00 PM 40.5481 -105.5918 27° Northeast  Level Estimated
Fri 06:27:00 PM 40.6645 -105.5125 27° Northeast  Level Estimated
Fri 06:28:00 PM 40.7808 -105.4328 27° Northeast  Level Estimated
Fri 06:29:00 PM 40.8970 -105.3529 27° Northeast  Level Estimated
Fri 06:30:00 PM 41.0132 -105.2727 28° Northeast  Level Estimated
Fri 06:31:00 PM 41.1294 -105.1922 28° Northeast  Level Estimated
Fri 06:32:00 PM 41.2455 -105.1115 28° Northeast  Level Estimated
Fri 06:33:00 PM 41.3615 -105.0304 28° Northeast  Level Estimated
Fri 06:34:00 PM 41.4775 -104.9491 28° Northeast  Level Estimated
Fri 06:35:00 PM 41.5934 -104.8674 28° Northeast  Level Estimated
Fri 06:36:00 PM 41.7093 -104.7855 28° Northeast  Level Estimated
Fri 06:37:00 PM 41.8251 -104.7032 28° Northeast  Level Estimated
Fri 06:38:00 PM 41.9408 -104.6207 28° Northeast  Level Estimated
Fri 06:39:00 PM 42.0565 -104.5379 28° Northeast  Level Estimated
Fri 06:40:00 PM 42.1722 -104.4548 28° Northeast  Level Estimated
Fri 06:41:00 PM 42.2877 -104.3714 28° Northeast  Level Estimated
Fri 06:42:00 PM 42.4032 -104.2876 28° Northeast  Level Estimated
Fri 06:43:00 PM 42.5187 -104.2036 28° Northeast  Level Estimated
Fri 06:44:00 PM 42.6341 -104.1192 28° Northeast  Level Estimated
Fri 06:45:00 PM 42.7494 -104.0345 28° Northeast  Level Estimated
Fri 06:46:00 PM 42.8646 -103.9495 28° Northeast  Level Estimated
Fri 06:47:00 PM 42.9798 -103.8642 28° Northeast  Level Estimated
Fri 06:48:00 PM 43.0950 -103.7786 28° Northeast  Level Estimated
Fri 06:49:00 PM 43.2100 -103.6927 29° Northeast  Level Estimated
Fri 06:50:00 PM 43.3250 -103.6064 29° Northeast  Level Estimated
Fri 06:51:00 PM 43.4400 -103.5198 29° Northeast  Level Estimated
Fri 06:52:00 PM 43.5549 -103.4329 29° Northeast  Level Estimated
Fri 06:53:00 PM 43.6697 -103.3456 29° Northeast  Level Estimated
Fri 06:54:00 PM 43.7844 -103.2580 29° Northeast  Level Estimated
Fri 06:55:00 PM 43.8991 -103.1701 29° Northeast  Level Estimated
Fri 06:56:00 PM 44.0137 -103.0818 29° Northeast  Level Estimated
Fri 06:57:00 PM 44.0453 -103.0574 29° Northeast  Level Estimated
Fri 06:58:00 PM 44.0453 -103.0574 347° North  Level Estimated
Fri 06:59:00 PM 44.0453 -103.0574 347° North  Level Estimated
Fri 07:00:00 PM 44.0453 -103.0574 347° North  Level Estimated
Fri 07:01:00 PM 44.0453 -103.0574 347° North  Level Estimated
Fri 07:02:00 PM 44.0453 -103.0574 347° North  Level Estimated
Fri 07:03:00 PM 44.0453 -103.0574 347° North  Level Estimated
Fri 07:04:00 PM 44.0453 -103.0574 347° North  Level Estimated
Fri 07:05:00 PM 44.0453 -103.0574 347° North  Level Estimated
Fri 07:06:00 PM 44.0453 -103.0574 347° North  Level Estimated
Fri 07:07:00 PM 44.0453 -103.0574 347° North  Level Estimated
Fri 07:08:00 PM 44.0453 -103.0574 347° North  Level Estimated
Fri 07:09:00 PM 44.0453 -103.0574 347° North  Level Estimated
Fri 07:10:00 PM 44.0453 -103.0574 347° North  Level Estimated
Fri 07:11:00 PM 44.0453 -103.0574 347° North  Level Estimated
Fri 07:12:00 PM 44.0453 -103.0574 347° North  Level Estimated
Fri 07:13:00 PM 44.0453 -103.0574 347° North  Level Estimated
Fri 07:14:00 PM 44.0453 -103.0574 347° North  Level Estimated
Fri 07:15:00 PM 44.0453 -103.0574 347° North  Level Estimated
Fri 07:16:00 PM 44.0453 -103.0574 347° North  Level Estimated
Fri 07:17:00 PM 44.0453 -103.0574 347° North  Level Estimated
Fri 07:18:00 PM 44.0453 -103.0574 347° North  Level Estimated
Fri 07:19:00 PM 44.0453 -103.0574 347° North  Level Estimated
Fri 07:20:00 PM 44.0453 -103.0574 347° North  Level Estimated
Fri 07:21:00 PM 44.0453 -103.0574 347° North  Level Estimated
Fri 07:22:00 PM 44.0453 -103.0574 347° North  Level Estimated
Fri 07:23:00 PM 44.0453 -103.0574 347° North  Level Estimated
Fri 07:24:00 PM 44.0453 -103.0574 347° North  Level Estimated
Fri 07:25:00 PM 44.0453 -103.0574 347° North  Level Estimated
Fri 07:26:00 PM 44.0453 -103.0574 347° North  Level Estimated

Login

Don't have an account? Register now (free) for customized features, flight alerts, and more!